sensor_id;sensor_type;location;lat;lon;timestamp;P1;durP1;ratioP1;P2;durP2;ratioP2
22614;SDS011;11474;50.790;0.298;2023-06-04T00:00:53;13.40;;;3.30;;
22614;SDS011;11474;50.790;0.298;2023-06-04T00:03:19;15.95;;;3.20;;
22614;SDS011;11474;50.790;0.298;2023-06-04T00:05:46;19.07;;;3.87;;
22614;SDS011;11474;50.790;0.298;2023-06-04T00:08:12;11.27;;;3.47;;
22614;SDS011;11474;50.790;0.298;2023-06-04T00:10:38;13.60;;;3.37;;
22614;SDS011;11474;50.790;0.298;2023-06-04T00:13:05;12.25;;;3.47;;
22614;SDS011;11474;50.790;0.298;2023-06-04T00:15:31;14.05;;;3.30;;
22614;SDS011;11474;50.790;0.298;2023-06-04T00:17:57;19.58;;;3.55;;
22614;SDS011;11474;50.790;0.298;2023-06-04T00:20:23;15.07;;;3.42;;
22614;SDS011;11474;50.790;0.298;2023-06-04T00:22:49;17.08;;;3.17;;
22614;SDS011;11474;50.790;0.298;2023-06-04T00:25:15;13.10;;;3.73;;
22614;SDS011;11474;50.790;0.298;2023-06-04T00:27:41;14.07;;;3.30;;
22614;SDS011;11474;50.790;0.298;2023-06-04T00:30:08;18.87;;;4.03;;
22614;SDS011;11474;50.790;0.298;2023-06-04T00:32:34;15.73;;;3.50;;
22614;SDS011;11474;50.790;0.298;2023-06-04T00:35:00;16.73;;;3.80;;
22614;SDS011;11474;50.790;0.298;2023-06-04T00:37:27;19.90;;;3.53;;
22614;SDS011;11474;50.790;0.298;2023-06-04T00:39:54;13.15;;;3.60;;
22614;SDS011;11474;50.790;0.298;2023-06-04T00:42:20;17.00;;;3.65;;
22614;SDS011;11474;50.790;0.298;2023-06-04T00:44:46;14.38;;;3.47;;
22614;SDS011;11474;50.790;0.298;2023-06-04T00:47:15;15.93;;;3.35;;
22614;SDS011;11474;50.790;0.298;2023-06-04T00:49:42;17.27;;;3.70;;
22614;SDS011;11474;50.790;0.298;2023-06-04T00:52:08;17.48;;;4.05;;
22614;SDS011;11474;50.790;0.298;2023-06-04T00:54:35;14.75;;;3.58;;
22614;SDS011;11474;50.790;0.298;2023-06-04T00:57:02;12.57;;;3.53;;
22614;SDS011;11474;50.790;0.298;2023-06-04T00:59:29;14.85;;;3.47;;
22614;SDS011;11474;50.790;0.298;2023-06-04T01:04:29;14.65;;;4.00;;
22614;SDS011;11474;50.790;0.298;2023-06-04T01:06:56;15.70;;;4.20;;
22614;SDS011;11474;50.790;0.298;2023-06-04T01:09:28;16.17;;;3.92;;
22614;SDS011;11474;50.790;0.298;2023-06-04T01:11:55;16.55;;;3.38;;
22614;SDS011;11474;50.790;0.298;2023-06-04T01:14:27;15.43;;;3.45;;
22614;SDS011;11474;50.790;0.298;2023-06-04T01:16:56;16.63;;;3.60;;
22614;SDS011;11474;50.790;0.298;2023-06-04T01:22:19;15.07;;;3.72;;
22614;SDS011;11474;50.790;0.298;2023-06-04T01:24:51;14.48;;;3.83;;
22614;SDS011;11474;50.790;0.298;2023-06-04T01:27:20;18.27;;;3.67;;
22614;SDS011;11474;50.790;0.298;2023-06-04T01:29:47;15.32;;;3.78;;
22614;SDS011;11474;50.790;0.298;2023-06-04T01:32:15;20.23;;;4.53;;
22614;SDS011;11474;50.790;0.298;2023-06-04T01:34:47;17.50;;;3.75;;
22614;SDS011;11474;50.790;0.298;2023-06-04T01:37:13;18.45;;;4.28;;
22614;SDS011;11474;50.790;0.298;2023-06-04T01:39:41;20.38;;;3.90;;
22614;SDS011;11474;50.790;0.298;2023-06-04T01:42:08;15.98;;;3.58;;
22614;SDS011;11474;50.790;0.298;2023-06-04T01:44:34;24.13;;;4.47;;
22614;SDS011;11474;50.790;0.298;2023-06-04T01:47:00;16.95;;;3.97;;
22614;SDS011;11474;50.790;0.298;2023-06-04T01:49:26;17.38;;;4.18;;
22614;SDS011;11474;50.790;0.298;2023-06-04T01:51:52;20.80;;;4.00;;
22614;SDS011;11474;50.790;0.298;2023-06-04T01:54:18;17.23;;;4.40;;
22614;SDS011;11474;50.790;0.298;2023-06-04T01:56:44;16.77;;;4.28;;
22614;SDS011;11474;50.790;0.298;2023-06-04T01:59:13;16.17;;;4.00;;
22614;SDS011;11474;50.790;0.298;2023-06-04T02:01:41;18.75;;;4.30;;
22614;SDS011;11474;50.790;0.298;2023-06-04T02:04:07;17.70;;;4.18;;
22614;SDS011;11474;50.790;0.298;2023-06-04T02:06:33;20.20;;;4.05;;
22614;SDS011;11474;50.790;0.298;2023-06-04T02:08:59;16.77;;;3.83;;
22614;SDS011;11474;50.790;0.298;2023-06-04T02:11:26;18.80;;;4.38;;
22614;SDS011;11474;50.790;0.298;2023-06-04T02:13:52;16.20;;;3.88;;
22614;SDS011;11474;50.790;0.298;2023-06-04T02:16:18;17.50;;;4.03;;
22614;SDS011;11474;50.790;0.298;2023-06-04T02:18:44;19.58;;;4.20;;
22614;SDS011;11474;50.790;0.298;2023-06-04T02:21:10;23.65;;;4.60;;
22614;SDS011;11474;50.790;0.298;2023-06-04T02:23:37;21.08;;;4.07;;
22614;SDS011;11474;50.790;0.298;2023-06-04T02:26:03;18.63;;;4.57;;
22614;SDS011;11474;50.790;0.298;2023-06-04T02:28:30;22.10;;;4.10;;
22614;SDS011;11474;50.790;0.298;2023-06-04T02:30:56;22.73;;;4.82;;
22614;SDS011;11474;50.790;0.298;2023-06-04T02:33:22;18.13;;;4.57;;
22614;SDS011;11474;50.790;0.298;2023-06-04T02:35:48;18.05;;;4.15;;
22614;SDS011;11474;50.790;0.298;2023-06-04T02:38:15;23.02;;;4.57;;
22614;SDS011;11474;50.790;0.298;2023-06-04T02:40:41;17.27;;;4.67;;
22614;SDS011;11474;50.790;0.298;2023-06-04T02:43:08;21.20;;;4.28;;
22614;SDS011;11474;50.790;0.298;2023-06-04T02:45:35;25.80;;;4.53;;
22614;SDS011;11474;50.790;0.298;2023-06-04T02:48:01;18.35;;;4.10;;
22614;SDS011;11474;50.790;0.298;2023-06-04T02:50:27;24.55;;;4.57;;
22614;SDS011;11474;50.790;0.298;2023-06-04T02:52:53;16.13;;;4.32;;
22614;SDS011;11474;50.790;0.298;2023-06-04T02:55:19;22.05;;;4.45;;
22614;SDS011;11474;50.790;0.298;2023-06-04T02:57:45;21.88;;;4.75;;
22614;SDS011;11474;50.790;0.298;2023-06-04T03:00:11;23.15;;;4.88;;
22614;SDS011;11474;50.790;0.298;2023-06-04T03:02:39;19.93;;;4.60;;
22614;SDS011;11474;50.790;0.298;2023-06-04T03:05:07;21.93;;;4.43;;
22614;SDS011;11474;50.790;0.298;2023-06-04T03:07:34;13.85;;;3.85;;
22614;SDS011;11474;50.790;0.298;2023-06-04T03:10:00;19.77;;;4.47;;
22614;SDS011;11474;50.790;0.298;2023-06-04T03:12:26;19.13;;;4.70;;
22614;SDS011;11474;50.790;0.298;2023-06-04T03:14:52;20.60;;;4.78;;
22614;SDS011;11474;50.790;0.298;2023-06-04T03:17:18;19.38;;;4.63;;
22614;SDS011;11474;50.790;0.298;2023-06-04T03:19:45;20.63;;;5.35;;
22614;SDS011;11474;50.790;0.298;2023-06-04T03:22:12;25.00;;;4.63;;
22614;SDS011;11474;50.790;0.298;2023-06-04T03:24:39;25.00;;;5.30;;
22614;SDS011;11474;50.790;0.298;2023-06-04T03:27:06;18.88;;;4.68;;
22614;SDS011;11474;50.790;0.298;2023-06-04T03:29:32;18.00;;;4.45;;
22614;SDS011;11474;50.790;0.298;2023-06-04T03:32:00;19.58;;;4.55;;
22614;SDS011;11474;50.790;0.298;2023-06-04T03:34:26;21.55;;;4.75;;
22614;SDS011;11474;50.790;0.298;2023-06-04T03:36:53;24.33;;;5.20;;
22614;SDS011;11474;50.790;0.298;2023-06-04T03:39:19;22.60;;;5.43;;
22614;SDS011;11474;50.790;0.298;2023-06-04T03:41:46;24.08;;;4.60;;
22614;SDS011;11474;50.790;0.298;2023-06-04T03:44:18;21.58;;;5.22;;
22614;SDS011;11474;50.790;0.298;2023-06-04T03:46:45;21.13;;;5.50;;
22614;SDS011;11474;50.790;0.298;2023-06-04T03:49:13;23.80;;;5.38;;
22614;SDS011;11474;50.790;0.298;2023-06-04T03:51:42;17.88;;;4.85;;
22614;SDS011;11474;50.790;0.298;2023-06-04T03:54:08;22.85;;;5.43;;
22614;SDS011;11474;50.790;0.298;2023-06-04T03:56:35;23.67;;;5.45;;
22614;SDS011;11474;50.790;0.298;2023-06-04T03:59:01;18.60;;;5.05;;
22614;SDS011;11474;50.790;0.298;2023-06-04T04:01:27;25.20;;;5.78;;
22614;SDS011;11474;50.790;0.298;2023-06-04T04:03:53;26.38;;;5.60;;
22614;SDS011;11474;50.790;0.298;2023-06-04T04:06:20;18.83;;;5.32;;
22614;SDS011;11474;50.790;0.298;2023-06-04T04:08:46;18.85;;;5.30;;
22614;SDS011;11474;50.790;0.298;2023-06-04T04:11:14;22.30;;;5.13;;
22614;SDS011;11474;50.790;0.298;2023-06-04T04:13:40;20.63;;;5.30;;
22614;SDS011;11474;50.790;0.298;2023-06-04T04:16:06;19.35;;;5.40;;
22614;SDS011;11474;50.790;0.298;2023-06-04T04:18:33;20.27;;;5.77;;
22614;SDS011;11474;50.790;0.298;2023-06-04T04:20:59;21.27;;;5.43;;
22614;SDS011;11474;50.790;0.298;2023-06-04T04:23:26;19.17;;;5.47;;
22614;SDS011;11474;50.790;0.298;2023-06-04T04:25:52;22.50;;;5.90;;
22614;SDS011;11474;50.790;0.298;2023-06-04T04:28:19;29.50;;;6.00;;
22614;SDS011;11474;50.790;0.298;2023-06-04T04:30:45;25.23;;;5.40;;
22614;SDS011;11474;50.790;0.298;2023-06-04T04:33:12;20.02;;;5.60;;
22614;SDS011;11474;50.790;0.298;2023-06-04T04:35:41;22.98;;;5.72;;
22614;SDS011;11474;50.790;0.298;2023-06-04T04:38:10;18.73;;;5.70;;
22614;SDS011;11474;50.790;0.298;2023-06-04T04:40:37;20.23;;;5.90;;
22614;SDS011;11474;50.790;0.298;2023-06-04T04:43:03;24.40;;;6.13;;
22614;SDS011;11474;50.790;0.298;2023-06-04T04:45:29;20.87;;;6.00;;
22614;SDS011;11474;50.790;0.298;2023-06-04T04:47:55;22.30;;;5.82;;
22614;SDS011;11474;50.790;0.298;2023-06-04T04:50:21;26.73;;;6.20;;
22614;SDS011;11474;50.790;0.298;2023-06-04T04:52:47;22.20;;;5.60;;
22614;SDS011;11474;50.790;0.298;2023-06-04T04:55:13;25.90;;;6.88;;
22614;SDS011;11474;50.790;0.298;2023-06-04T04:57:39;21.98;;;6.03;;
22614;SDS011;11474;50.790;0.298;2023-06-04T05:00:06;20.83;;;5.85;;
22614;SDS011;11474;50.790;0.298;2023-06-04T05:02:37;20.48;;;5.88;;
22614;SDS011;11474;50.790;0.298;2023-06-04T05:05:03;23.53;;;5.87;;
22614;SDS011;11474;50.790;0.298;2023-06-04T05:07:29;24.88;;;5.68;;
22614;SDS011;11474;50.790;0.298;2023-06-04T05:09:55;26.23;;;6.43;;
22614;SDS011;11474;50.790;0.298;2023-06-04T05:12:24;22.38;;;6.40;;
22614;SDS011;11474;50.790;0.298;2023-06-04T05:14:51;22.77;;;6.18;;
22614;SDS011;11474;50.790;0.298;2023-06-04T05:17:18;19.67;;;5.97;;
22614;SDS011;11474;50.790;0.298;2023-06-04T05:19:46;24.20;;;6.10;;
22614;SDS011;11474;50.790;0.298;2023-06-04T05:22:12;25.85;;;6.35;;
22614;SDS011;11474;50.790;0.298;2023-06-04T05:24:41;21.73;;;5.80;;
22614;SDS011;11474;50.790;0.298;2023-06-04T05:27:07;23.43;;;6.17;;
22614;SDS011;11474;50.790;0.298;2023-06-04T05:29:34;23.50;;;5.85;;
22614;SDS011;11474;50.790;0.298;2023-06-04T05:32:01;18.70;;;5.95;;
22614;SDS011;11474;50.790;0.298;2023-06-04T05:34:27;17.65;;;5.35;;
22614;SDS011;11474;50.790;0.298;2023-06-04T05:36:54;23.02;;;5.30;;
22614;SDS011;11474;50.790;0.298;2023-06-04T05:39:22;23.70;;;5.70;;
22614;SDS011;11474;50.790;0.298;2023-06-04T05:41:48;22.73;;;5.22;;
22614;SDS011;11474;50.790;0.298;2023-06-04T05:44:15;25.63;;;5.50;;
22614;SDS011;11474;50.790;0.298;2023-06-04T05:46:41;20.23;;;5.53;;
22614;SDS011;11474;50.790;0.298;2023-06-04T05:49:07;22.48;;;5.28;;
22614;SDS011;11474;50.790;0.298;2023-06-04T05:51:33;23.63;;;5.70;;
22614;SDS011;11474;50.790;0.298;2023-06-04T05:54:01;20.95;;;6.05;;
22614;SDS011;11474;50.790;0.298;2023-06-04T05:56:27;20.80;;;4.70;;
22614;SDS011;11474;50.790;0.298;2023-06-04T05:58:53;16.48;;;4.90;;
22614;SDS011;11474;50.790;0.298;2023-06-04T06:01:20;27.48;;;4.88;;
22614;SDS011;11474;50.790;0.298;2023-06-04T06:03:46;21.10;;;4.65;;
22614;SDS011;11474;50.790;0.298;2023-06-04T06:06:12;22.65;;;5.22;;
22614;SDS011;11474;50.790;0.298;2023-06-04T06:08:39;18.90;;;5.43;;
22614;SDS011;11474;50.790;0.298;2023-06-04T06:11:05;20.20;;;5.95;;
22614;SDS011;11474;50.790;0.298;2023-06-04T06:13:32;20.45;;;4.93;;
22614;SDS011;11474;50.790;0.298;2023-06-04T06:15:58;25.52;;;4.97;;
22614;SDS011;11474;50.790;0.298;2023-06-04T06:18:24;17.92;;;4.78;;
22614;SDS011;11474;50.790;0.298;2023-06-04T06:20:50;16.67;;;5.00;;
22614;SDS011;11474;50.790;0.298;2023-06-04T06:23:16;20.83;;;5.20;;
22614;SDS011;11474;50.790;0.298;2023-06-04T06:25:44;16.58;;;5.13;;
22614;SDS011;11474;50.790;0.298;2023-06-04T06:28:11;21.67;;;5.07;;
22614;SDS011;11474;50.790;0.298;2023-06-04T06:30:37;25.73;;;5.25;;
22614;SDS011;11474;50.790;0.298;2023-06-04T06:33:03;20.85;;;4.72;;
22614;SDS011;11474;50.790;0.298;2023-06-04T06:35:29;18.42;;;5.47;;
22614;SDS011;11474;50.790;0.298;2023-06-04T06:37:55;17.00;;;4.83;;
22614;SDS011;11474;50.790;0.298;2023-06-04T06:40:21;17.85;;;4.60;;
22614;SDS011;11474;50.790;0.298;2023-06-04T06:42:48;18.02;;;4.43;;
22614;SDS011;11474;50.790;0.298;2023-06-04T06:45:15;20.25;;;4.47;;
22614;SDS011;11474;50.790;0.298;2023-06-04T06:47:41;17.92;;;4.95;;
22614;SDS011;11474;50.790;0.298;2023-06-04T06:50:07;21.38;;;4.55;;
22614;SDS011;11474;50.790;0.298;2023-06-04T06:52:33;15.23;;;4.20;;
22614;SDS011;11474;50.790;0.298;2023-06-04T06:54:59;17.67;;;4.30;;
22614;SDS011;11474;50.790;0.298;2023-06-04T06:57:25;21.17;;;4.60;;
22614;SDS011;11474;50.790;0.298;2023-06-04T06:59:51;24.10;;;4.60;;
22614;SDS011;11474;50.790;0.298;2023-06-04T07:02:19;19.70;;;4.72;;
22614;SDS011;11474;50.790;0.298;2023-06-04T07:04:45;17.02;;;4.30;;
22614;SDS011;11474;50.790;0.298;2023-06-04T07:07:11;16.70;;;4.03;;
22614;SDS011;11474;50.790;0.298;2023-06-04T07:09:37;19.88;;;4.40;;
22614;SDS011;11474;50.790;0.298;2023-06-04T07:12:03;17.67;;;4.28;;
22614;SDS011;11474;50.790;0.298;2023-06-04T07:14:29;13.77;;;3.55;;
22614;SDS011;11474;50.790;0.298;2023-06-04T07:16:56;21.42;;;4.07;;
22614;SDS011;11474;50.790;0.298;2023-06-04T07:19:22;17.52;;;4.03;;
22614;SDS011;11474;50.790;0.298;2023-06-04T07:21:48;20.17;;;4.93;;
22614;SDS011;11474;50.790;0.298;2023-06-04T07:24:14;18.13;;;3.92;;
22614;SDS011;11474;50.790;0.298;2023-06-04T07:26:40;16.33;;;3.70;;
22614;SDS011;11474;50.790;0.298;2023-06-04T07:29:06;17.23;;;4.05;;
22614;SDS011;11474;50.790;0.298;2023-06-04T07:31:32;18.65;;;4.10;;
22614;SDS011;11474;50.790;0.298;2023-06-04T07:33:58;14.37;;;3.80;;
22614;SDS011;11474;50.790;0.298;2023-06-04T07:36:24;17.65;;;3.63;;
22614;SDS011;11474;50.790;0.298;2023-06-04T07:38:50;14.80;;;4.00;;
22614;SDS011;11474;50.790;0.298;2023-06-04T07:41:16;16.95;;;4.18;;
22614;SDS011;11474;50.790;0.298;2023-06-04T07:43:43;14.73;;;3.33;;
22614;SDS011;11474;50.790;0.298;2023-06-04T07:46:09;16.23;;;3.75;;
22614;SDS011;11474;50.790;0.298;2023-06-04T07:48:36;16.73;;;4.10;;
22614;SDS011;11474;50.790;0.298;2023-06-04T07:51:02;12.60;;;3.65;;
22614;SDS011;11474;50.790;0.298;2023-06-04T07:53:29;15.90;;;4.15;;
22614;SDS011;11474;50.790;0.298;2023-06-04T07:55:56;16.15;;;3.95;;
22614;SDS011;11474;50.790;0.298;2023-06-04T07:58:22;17.60;;;4.03;;
22614;SDS011;11474;50.790;0.298;2023-06-04T08:00:48;13.80;;;3.95;;
22614;SDS011;11474;50.790;0.298;2023-06-04T08:03:14;17.90;;;3.60;;
22614;SDS011;11474;50.790;0.298;2023-06-04T08:05:41;18.05;;;3.83;;
22614;SDS011;11474;50.790;0.298;2023-06-04T08:08:07;16.87;;;3.77;;
22614;SDS011;11474;50.790;0.298;2023-06-04T08:10:33;19.38;;;4.43;;
22614;SDS011;11474;50.790;0.298;2023-06-04T08:12:59;19.60;;;4.28;;
22614;SDS011;11474;50.790;0.298;2023-06-04T08:15:25;15.07;;;3.72;;
22614;SDS011;11474;50.790;0.298;2023-06-04T08:17:51;15.27;;;3.80;;
22614;SDS011;11474;50.790;0.298;2023-06-04T08:20:18;13.95;;;3.75;;
22614;SDS011;11474;50.790;0.298;2023-06-04T08:22:44;17.40;;;4.15;;
22614;SDS011;11474;50.790;0.298;2023-06-04T08:25:10;16.47;;;4.10;;
22614;SDS011;11474;50.790;0.298;2023-06-04T08:27:36;21.00;;;4.00;;
22614;SDS011;11474;50.790;0.298;2023-06-04T08:30:03;15.65;;;3.38;;
22614;SDS011;11474;50.790;0.298;2023-06-04T08:32:29;17.40;;;3.60;;
22614;SDS011;11474;50.790;0.298;2023-06-04T08:34:55;13.57;;;3.57;;
22614;SDS011;11474;50.790;0.298;2023-06-04T08:37:21;12.60;;;3.60;;
22614;SDS011;11474;50.790;0.298;2023-06-04T08:39:49;12.43;;;3.30;;
22614;SDS011;11474;50.790;0.298;2023-06-04T08:42:17;14.98;;;3.65;;
22614;SDS011;11474;50.790;0.298;2023-06-04T08:44:50;18.00;;;3.70;;
22614;SDS011;11474;50.790;0.298;2023-06-04T08:47:20;17.10;;;3.67;;
22614;SDS011;11474;50.790;0.298;2023-06-04T08:49:50;25.70;;;3.88;;
22614;SDS011;11474;50.790;0.298;2023-06-04T08:52:16;13.25;;;3.53;;
22614;SDS011;11474;50.790;0.298;2023-06-04T08:54:47;15.35;;;3.33;;
22614;SDS011;11474;50.790;0.298;2023-06-04T08:57:13;13.63;;;3.25;;
22614;SDS011;11474;50.790;0.298;2023-06-04T08:59:40;16.80;;;3.80;;
22614;SDS011;11474;50.790;0.298;2023-06-04T09:02:06;13.05;;;3.40;;
22614;SDS011;11474;50.790;0.298;2023-06-04T09:04:33;12.30;;;3.30;;
22614;SDS011;11474;50.790;0.298;2023-06-04T09:07:02;17.30;;;3.70;;
22614;SDS011;11474;50.790;0.298;2023-06-04T09:09:28;13.18;;;3.63;;
22614;SDS011;11474;50.790;0.298;2023-06-04T09:11:56;11.05;;;3.30;;
22614;SDS011;11474;50.790;0.298;2023-06-04T09:14:23;14.65;;;3.47;;
22614;SDS011;11474;50.790;0.298;2023-06-04T09:16:50;14.85;;;3.42;;
22614;SDS011;11474;50.790;0.298;2023-06-04T09:19:16;14.63;;;3.92;;
22614;SDS011;11474;50.790;0.298;2023-06-04T09:21:49;17.00;;;3.85;;
22614;SDS011;11474;50.790;0.298;2023-06-04T09:24:16;15.88;;;3.42;;
22614;SDS011;11474;50.790;0.298;2023-06-04T09:26:42;14.73;;;3.97;;
22614;SDS011;11474;50.790;0.298;2023-06-04T09:29:08;16.17;;;3.80;;
22614;SDS011;11474;50.790;0.298;2023-06-04T09:31:35;16.48;;;3.35;;
22614;SDS011;11474;50.790;0.298;2023-06-04T09:34:02;13.45;;;3.58;;
22614;SDS011;11474;50.790;0.298;2023-06-04T09:36:34;13.63;;;3.70;;
22614;SDS011;11474;50.790;0.298;2023-06-04T09:39:14;12.82;;;3.28;;
22614;SDS011;11474;50.790;0.298;2023-06-04T09:41:40;13.27;;;3.67;;
22614;SDS011;11474;50.790;0.298;2023-06-04T09:44:06;12.60;;;3.25;;
22614;SDS011;11474;50.790;0.298;2023-06-04T09:46:35;15.50;;;3.72;;
22614;SDS011;11474;50.790;0.298;2023-06-04T09:49:03;15.27;;;3.47;;
22614;SDS011;11474;50.790;0.298;2023-06-04T09:51:29;10.95;;;3.30;;
22614;SDS011;11474;50.790;0.298;2023-06-04T09:53:56;14.32;;;3.70;;
22614;SDS011;11474;50.790;0.298;2023-06-04T09:56:23;15.00;;;3.37;;
22614;SDS011;11474;50.790;0.298;2023-06-04T09:58:58;12.15;;;3.17;;
22614;SDS011;11474;50.790;0.298;2023-06-04T10:01:28;12.50;;;3.03;;
22614;SDS011;11474;50.790;0.298;2023-06-04T10:03:55;12.38;;;3.35;;
22614;SDS011;11474;50.790;0.298;2023-06-04T10:06:23;12.20;;;3.20;;
22614;SDS011;11474;50.790;0.298;2023-06-04T10:08:51;11.68;;;2.60;;
22614;SDS011;11474;50.790;0.298;2023-06-04T10:11:18;11.20;;;2.77;;
22614;SDS011;11474;50.790;0.298;2023-06-04T10:14:07;12.98;;;2.97;;
22614;SDS011;11474;50.790;0.298;2023-06-04T10:16:37;13.43;;;3.05;;
22614;SDS011;11474;50.790;0.298;2023-06-04T10:19:04;11.77;;;3.47;;
22614;SDS011;11474;50.790;0.298;2023-06-04T10:21:33;10.48;;;2.90;;
22614;SDS011;11474;50.790;0.298;2023-06-04T10:24:02;12.80;;;3.03;;
22614;SDS011;11474;50.790;0.298;2023-06-04T10:26:29;15.93;;;3.20;;
22614;SDS011;11474;50.790;0.298;2023-06-04T10:28:58;13.67;;;3.20;;
22614;SDS011;11474;50.790;0.298;2023-06-04T10:31:26;14.80;;;3.35;;
22614;SDS011;11474;50.790;0.298;2023-06-04T10:33:55;12.85;;;3.30;;
22614;SDS011;11474;50.790;0.298;2023-06-04T10:36:22;15.15;;;3.30;;
22614;SDS011;11474;50.790;0.298;2023-06-04T10:38:55;11.82;;;3.10;;
22614;SDS011;11474;50.790;0.298;2023-06-04T10:41:21;13.40;;;3.72;;
22614;SDS011;11474;50.790;0.298;2023-06-04T10:43:48;10.18;;;3.05;;
22614;SDS011;11474;50.790;0.298;2023-06-04T10:46:15;11.90;;;3.22;;
22614;SDS011;11474;50.790;0.298;2023-06-04T10:48:49;12.65;;;3.13;;
22614;SDS011;11474;50.790;0.298;2023-06-04T10:51:16;9.93;;;2.72;;
22614;SDS011;11474;50.790;0.298;2023-06-04T10:53:42;9.43;;;2.92;;
22614;SDS011;11474;50.790;0.298;2023-06-04T10:56:08;13.55;;;3.30;;
22614;SDS011;11474;50.790;0.298;2023-06-04T10:58:35;11.48;;;2.83;;
22614;SDS011;11474;50.790;0.298;2023-06-04T11:01:01;15.13;;;3.28;;
22614;SDS011;11474;50.790;0.298;2023-06-04T11:03:36;10.93;;;3.00;;
22614;SDS011;11474;50.790;0.298;2023-06-04T11:06:13;16.20;;;3.60;;
22614;SDS011;11474;50.790;0.298;2023-06-04T11:08:40;16.13;;;3.37;;
22614;SDS011;11474;50.790;0.298;2023-06-04T11:11:13;13.30;;;3.30;;
22614;SDS011;11474;50.790;0.298;2023-06-04T11:13:40;15.93;;;3.53;;
22614;SDS011;11474;50.790;0.298;2023-06-04T11:16:16;20.75;;;3.75;;
22614;SDS011;11474;50.790;0.298;2023-06-04T11:18:42;17.30;;;3.65;;
22614;SDS011;11474;50.790;0.298;2023-06-04T11:21:09;18.92;;;3.95;;
22614;SDS011;11474;50.790;0.298;2023-06-04T11:23:39;15.05;;;3.75;;
22614;SDS011;11474;50.790;0.298;2023-06-04T11:26:06;15.85;;;3.45;;
22614;SDS011;11474;50.790;0.298;2023-06-04T11:28:32;15.00;;;3.88;;
22614;SDS011;11474;50.790;0.298;2023-06-04T11:30:59;21.80;;;4.07;;
22614;SDS011;11474;50.790;0.298;2023-06-04T11:33:27;15.02;;;3.38;;
22614;SDS011;11474;50.790;0.298;2023-06-04T11:35:53;19.33;;;3.67;;
22614;SDS011;11474;50.790;0.298;2023-06-04T11:38:20;20.73;;;3.80;;
22614;SDS011;11474;50.790;0.298;2023-06-04T11:41:04;18.73;;;4.03;;
22614;SDS011;11474;50.790;0.298;2023-06-04T11:43:31;15.73;;;3.63;;
22614;SDS011;11474;50.790;0.298;2023-06-04T11:45:59;13.07;;;3.17;;
22614;SDS011;11474;50.790;0.298;2023-06-04T11:48:30;14.93;;;3.95;;
22614;SDS011;11474;50.790;0.298;2023-06-04T11:50:56;17.45;;;4.20;;
22614;SDS011;11474;50.790;0.298;2023-06-04T11:53:23;13.25;;;3.75;;
22614;SDS011;11474;50.790;0.298;2023-06-04T11:55:49;15.50;;;3.60;;
22614;SDS011;11474;50.790;0.298;2023-06-04T11:58:15;12.63;;;3.30;;
22614;SDS011;11474;50.790;0.298;2023-06-04T12:00:42;15.45;;;3.60;;
22614;SDS011;11474;50.790;0.298;2023-06-04T12:03:08;14.80;;;3.63;;
22614;SDS011;11474;50.790;0.298;2023-06-04T12:05:34;16.95;;;3.40;;
22614;SDS011;11474;50.790;0.298;2023-06-04T12:08:06;15.15;;;3.65;;
22614;SDS011;11474;50.790;0.298;2023-06-04T12:10:41;14.68;;;3.85;;
22614;SDS011;11474;50.790;0.298;2023-06-04T12:13:07;13.07;;;3.33;;
22614;SDS011;11474;50.790;0.298;2023-06-04T12:15:33;15.82;;;3.28;;
22614;SDS011;11474;50.790;0.298;2023-06-04T12:17:59;15.52;;;3.40;;
22614;SDS011;11474;50.790;0.298;2023-06-04T12:20:35;16.17;;;4.18;;
22614;SDS011;11474;50.790;0.298;2023-06-04T12:23:02;13.50;;;3.55;;
22614;SDS011;11474;50.790;0.298;2023-06-04T12:25:28;16.10;;;3.80;;
22614;SDS011;11474;50.790;0.298;2023-06-04T12:27:55;16.60;;;4.35;;
22614;SDS011;11474;50.790;0.298;2023-06-04T12:30:21;14.30;;;3.60;;
22614;SDS011;11474;50.790;0.298;2023-06-04T12:32:48;14.65;;;3.40;;
22614;SDS011;11474;50.790;0.298;2023-06-04T12:35:15;14.88;;;3.78;;
22614;SDS011;11474;50.790;0.298;2023-06-04T12:37:41;14.20;;;3.22;;
22614;SDS011;11474;50.790;0.298;2023-06-04T12:40:08;15.23;;;3.70;;
22614;SDS011;11474;50.790;0.298;2023-06-04T12:42:34;16.25;;;3.67;;
22614;SDS011;11474;50.790;0.298;2023-06-04T12:45:00;15.15;;;3.45;;
22614;SDS011;11474;50.790;0.298;2023-06-04T12:47:26;18.10;;;4.03;;
22614;SDS011;11474;50.790;0.298;2023-06-04T12:49:52;12.98;;;3.30;;
22614;SDS011;11474;50.790;0.298;2023-06-04T12:52:18;17.63;;;3.53;;
22614;SDS011;11474;50.790;0.298;2023-06-04T12:54:44;12.93;;;3.05;;
22614;SDS011;11474;50.790;0.298;2023-06-04T12:57:11;15.82;;;3.78;;
22614;SDS011;11474;50.790;0.298;2023-06-04T12:59:37;12.60;;;3.30;;
22614;SDS011;11474;50.790;0.298;2023-06-04T13:02:03;14.77;;;3.40;;
22614;SDS011;11474;50.790;0.298;2023-06-04T13:04:29;17.02;;;3.78;;
22614;SDS011;11474;50.790;0.298;2023-06-04T13:06:55;15.73;;;3.50;;
22614;SDS011;11474;50.790;0.298;2023-06-04T13:09:24;15.25;;;3.97;;
22614;SDS011;11474;50.790;0.298;2023-06-04T13:11:50;17.55;;;4.35;;
22614;SDS011;11474;50.790;0.298;2023-06-04T13:14:16;16.70;;;3.50;;
22614;SDS011;11474;50.790;0.298;2023-06-04T13:16:43;21.35;;;3.83;;
22614;SDS011;11474;50.790;0.298;2023-06-04T13:19:10;17.75;;;4.03;;
22614;SDS011;11474;50.790;0.298;2023-06-04T13:21:36;16.35;;;3.65;;
22614;SDS011;11474;50.790;0.298;2023-06-04T13:24:02;13.23;;;3.70;;
22614;SDS011;11474;50.790;0.298;2023-06-04T13:26:28;13.90;;;3.65;;
22614;SDS011;11474;50.790;0.298;2023-06-04T13:28:54;13.15;;;3.40;;
22614;SDS011;11474;50.790;0.298;2023-06-04T13:31:21;17.15;;;3.47;;
22614;SDS011;11474;50.790;0.298;2023-06-04T13:33:47;11.00;;;3.10;;
22614;SDS011;11474;50.790;0.298;2023-06-04T13:36:13;18.90;;;3.95;;
22614;SDS011;11474;50.790;0.298;2023-06-04T13:38:39;12.82;;;3.20;;
22614;SDS011;11474;50.790;0.298;2023-06-04T13:41:08;11.80;;;3.00;;
22614;SDS011;11474;50.790;0.298;2023-06-04T13:43:34;14.27;;;3.40;;
22614;SDS011;11474;50.790;0.298;2023-06-04T13:46:00;15.10;;;3.58;;
22614;SDS011;11474;50.790;0.298;2023-06-04T13:48:27;14.30;;;3.25;;
22614;SDS011;11474;50.790;0.298;2023-06-04T13:50:53;11.82;;;3.20;;
22614;SDS011;11474;50.790;0.298;2023-06-04T13:53:19;11.10;;;2.95;;
22614;SDS011;11474;50.790;0.298;2023-06-04T13:55:45;13.03;;;3.03;;
22614;SDS011;11474;50.790;0.298;2023-06-04T13:58:11;14.77;;;3.13;;
22614;SDS011;11474;50.790;0.298;2023-06-04T14:00:39;12.10;;;2.97;;
22614;SDS011;11474;50.790;0.298;2023-06-04T14:03:05;13.00;;;2.90;;
22614;SDS011;11474;50.790;0.298;2023-06-04T14:05:31;11.48;;;2.80;;
22614;SDS011;11474;50.790;0.298;2023-06-04T14:07:57;13.73;;;2.88;;
22614;SDS011;11474;50.790;0.298;2023-06-04T14:10:23;10.05;;;2.70;;
22614;SDS011;11474;50.790;0.298;2023-06-04T14:12:49;14.80;;;3.33;;
22614;SDS011;11474;50.790;0.298;2023-06-04T14:15:16;10.27;;;2.80;;
22614;SDS011;11474;50.790;0.298;2023-06-04T14:17:42;9.82;;;2.65;;
22614;SDS011;11474;50.790;0.298;2023-06-04T14:20:08;8.18;;;2.20;;
22614;SDS011;11474;50.790;0.298;2023-06-04T14:22:35;6.70;;;2.35;;
22614;SDS011;11474;50.790;0.298;2023-06-04T14:25:04;8.02;;;2.30;;
22614;SDS011;11474;50.790;0.298;2023-06-04T14:27:31;7.43;;;2.30;;
22614;SDS011;11474;50.790;0.298;2023-06-04T14:29:57;7.93;;;2.20;;
22614;SDS011;11474;50.790;0.298;2023-06-04T14:32:23;6.05;;;1.98;;
22614;SDS011;11474;50.790;0.298;2023-06-04T14:34:49;8.98;;;2.40;;
22614;SDS011;11474;50.790;0.298;2023-06-04T14:37:15;10.15;;;2.50;;
22614;SDS011;11474;50.790;0.298;2023-06-04T14:39:42;5.93;;;2.40;;